createdAt,value
2023-05-05T00:01:31.157Z,100226.81
2023-05-05T00:03:58.304Z,100215.09
2023-05-05T00:06:25.540Z,100218.19
2023-05-05T00:08:52.587Z,100218.28
2023-05-05T00:11:19.650Z,100212.94
2023-05-05T00:13:47.126Z,100206.97
2023-05-05T00:16:14.640Z,100218.16
2023-05-05T00:18:41.851Z,100212.94
2023-05-05T00:21:08.964Z,100193.97
2023-05-05T00:23:36.112Z,100202.72
2023-05-05T00:26:03.287Z,100212.25
2023-05-05T00:28:30.750Z,100214.53
2023-05-05T00:30:58.454Z,100215.47
2023-05-05T00:33:26.019Z,100203.25
2023-05-05T00:35:53.263Z,100214.66
2023-05-05T00:38:20.756Z,100216.09
2023-05-05T00:40:48.042Z,100220.94
2023-05-05T00:43:15.256Z,100224.00
2023-05-05T00:45:44.750Z,100217.31
2023-05-05T00:48:12.132Z,100212.25
2023-05-05T00:50:39.873Z,100203.91
2023-05-05T00:53:07.468Z,100206.63
2023-05-05T00:55:35.355Z,100205.25
2023-05-05T00:58:04.222Z,100210.97
2023-05-05T01:00:32.122Z,100213.78
2023-05-05T01:02:59.826Z,100203.44
2023-05-05T01:05:52.905Z,100214.22
2023-05-05T01:08:42.736Z,100216.34
2023-05-05T01:11:31.215Z,100208.28
2023-05-05T01:14:12.625Z,100215.94
2023-05-05T01:16:46.493Z,100212.03
2023-05-05T01:19:35.150Z,100208.06
2023-05-05T01:22:04.038Z,100206.88
2023-05-05T01:24:56.558Z,100206.47
2023-05-05T01:27:45.477Z,100206.78
2023-05-05T01:30:56.251Z,100207.44
2023-05-05T01:33:32.233Z,100176.72
2023-05-05T01:36:07.174Z,100201.72
2023-05-05T01:38:42.501Z,100183.72
2023-05-05T01:41:17.355Z,100182.00
2023-05-05T01:43:49.961Z,100193.13
2023-05-05T01:46:19.627Z,100163.16
2023-05-05T01:48:49.146Z,100187.16
2023-05-05T01:51:19.381Z,100188.25
2023-05-05T01:53:47.387Z,100194.34
2023-05-05T01:56:16.496Z,100191.03
2023-05-05T01:58:45.976Z,100168.91
2023-05-05T02:01:15.264Z,100190.19
2023-05-05T02:03:44.709Z,100189.06
2023-05-05T02:06:13.946Z,100183.25
2023-05-05T02:08:42.130Z,100174.00
2023-05-05T02:11:11.654Z,100178.28
2023-05-05T02:13:42.648Z,100158.09
2023-05-05T02:16:17.025Z,100185.41
2023-05-05T02:18:47.325Z,100186.13
2023-05-05T02:21:18.201Z,100185.25
2023-05-05T02:23:47.369Z,100187.75
2023-05-05T02:26:17.189Z,100186.50
2023-05-05T02:29:07.420Z,100194.56
2023-05-05T02:31:44.454Z,100185.22
2023-05-05T02:34:16.564Z,100187.56
2023-05-05T02:36:44.984Z,100193.91
2023-05-05T02:39:29.234Z,100189.50
2023-05-05T02:41:59.416Z,100193.50
2023-05-05T02:44:29.163Z,100195.78
2023-05-05T02:46:57.727Z,100185.59
2023-05-05T02:49:25.218Z,100195.09
2023-05-05T02:51:58.157Z,100185.13
2023-05-05T02:54:28.880Z,100175.41
2023-05-05T02:56:57.930Z,100183.97
2023-05-05T02:59:41.085Z,100177.97
2023-05-05T03:02:31.553Z,100183.06
2023-05-05T03:05:11.292Z,100165.44
2023-05-05T03:07:56.754Z,100181.13
2023-05-05T03:10:40.138Z,100162.97
2023-05-05T03:13:11.577Z,100189.28
2023-05-05T03:15:46.908Z,100187.47
2023-05-05T03:18:18.302Z,100187.72
2023-05-05T03:20:52.035Z,100182.81
2023-05-05T03:23:21.173Z,100186.75
2023-05-05T03:25:51.644Z,100191.88
2023-05-05T03:28:29.377Z,100187.03
2023-05-05T03:30:59.330Z,100191.63
2023-05-05T03:33:26.508Z,100178.59
2023-05-05T03:35:58.036Z,100188.50
2023-05-05T03:38:25.135Z,100190.28
2023-05-05T03:40:52.332Z,100191.63
2023-05-05T03:43:22.096Z,100190.97
2023-05-05T03:45:50.654Z,100192.56
2023-05-05T03:48:18.526Z,100195.00
2023-05-05T03:50:46.350Z,100201.28
2023-05-05T03:53:14.625Z,100198.50
2023-05-05T03:55:42.557Z,100203.31
2023-05-05T03:58:11.254Z,100204.47
2023-05-05T04:00:38.392Z,100214.31
2023-05-05T04:03:06.048Z,100213.03
2023-05-05T04:05:33.099Z,100226.56
2023-05-05T04:08:00.347Z,100235.63
2023-05-05T04:10:27.495Z,100232.31
2023-05-05T04:12:54.639Z,100242.81
2023-05-05T04:15:22.106Z,100234.53
2023-05-05T04:17:49.680Z,100235.34
2023-05-05T04:20:17.057Z,100228.09
2023-05-05T04:22:44.231Z,100235.59
2023-05-05T04:25:11.254Z,100233.16
2023-05-05T04:27:38.411Z,100239.66
2023-05-05T04:30:07.034Z,100238.38
2023-05-05T04:32:35.984Z,100247.97
2023-05-05T04:35:03.009Z,100252.56
2023-05-05T04:37:30.398Z,100249.78
2023-05-05T04:39:58.790Z,100239.41
2023-05-05T04:42:26.143Z,100241.44
2023-05-05T04:44:53.254Z,100246.88
2023-05-05T04:47:20.251Z,100261.94
2023-05-05T04:49:47.230Z,100242.03
2023-05-05T04:52:14.359Z,100263.31
2023-05-05T04:54:41.531Z,100259.88
2023-05-05T04:57:08.587Z,100254.16
2023-05-05T04:59:36.693Z,100250.31
2023-05-05T05:02:03.768Z,100278.84
2023-05-05T05:04:30.772Z,100277.72
2023-05-05T05:06:59.353Z,100278.25
2023-05-05T05:09:27.149Z,100282.34
2023-05-05T05:11:54.148Z,100289.22
2023-05-05T05:14:21.893Z,100238.78
2023-05-05T05:16:52.381Z,100291.00
2023-05-05T05:19:21.913Z,100287.41
2023-05-05T05:21:49.164Z,100289.31
2023-05-05T05:24:16.424Z,100301.16
2023-05-05T05:26:44.136Z,100287.53
2023-05-05T05:29:11.201Z,100295.59
2023-05-05T05:31:39.859Z,100293.13
2023-05-05T05:34:07.290Z,100286.03
2023-05-05T05:36:35.159Z,100291.00
2023-05-05T05:39:03.855Z,100280.78
2023-05-05T05:41:30.923Z,100283.81
2023-05-05T05:43:57.993Z,100263.63
2023-05-05T05:46:25.392Z,100278.81
2023-05-05T05:48:52.973Z,100284.38
2023-05-05T05:51:20.448Z,100286.88
2023-05-05T05:53:48.879Z,100288.41
2023-05-05T05:56:15.876Z,100297.41
2023-05-05T05:58:43.480Z,100276.25
2023-05-05T06:01:10.986Z,100286.44
2023-05-05T06:03:38.251Z,100293.78
2023-05-05T06:06:07.642Z,100291.00
2023-05-05T06:08:34.940Z,100294.31
2023-05-05T06:11:02.006Z,100300.38
2023-05-05T06:13:29.788Z,100297.13
2023-05-05T06:15:56.893Z,100299.47
2023-05-05T06:18:24.121Z,100305.28
2023-05-05T06:20:52.515Z,100308.19
2023-05-05T06:23:22.355Z,100310.94
2023-05-05T06:25:55.766Z,100290.44
2023-05-05T06:28:22.889Z,100298.75
2023-05-05T06:30:49.896Z,100308.94
2023-05-05T06:33:16.929Z,100305.69
2023-05-05T06:35:43.935Z,100300.44
2023-05-05T06:38:11.164Z,100297.66
2023-05-05T06:40:38.160Z,100299.19
2023-05-05T06:43:05.428Z,100298.34
2023-05-05T06:45:37.088Z,100297.41
2023-05-05T06:48:04.168Z,100293.94
2023-05-05T06:50:31.160Z,100305.69
2023-05-05T06:52:58.130Z,100310.97
2023-05-05T06:55:25.495Z,100307.09
2023-05-05T06:57:52.630Z,100300.72
2023-05-05T07:00:20.064Z,100307.06
2023-05-05T07:02:47.717Z,100316.19
2023-05-05T07:05:14.764Z,100308.63
2023-05-05T07:07:52.624Z,100321.22
2023-05-05T07:10:19.982Z,100309.16
2023-05-05T07:12:47.120Z,100329.38
2023-05-05T07:15:26.765Z,100325.50
2023-05-05T07:17:55.711Z,100332.16
2023-05-05T07:20:22.753Z,100325.63
2023-05-05T07:22:49.743Z,100324.91
2023-05-05T07:25:16.901Z,100312.38
2023-05-05T07:27:44.054Z,100317.38
2023-05-05T07:30:15.297Z,100326.41
2023-05-05T07:32:44.688Z,100335.59
2023-05-05T07:35:11.880Z,100322.81
2023-05-05T07:37:38.846Z,100337.56
2023-05-05T07:40:06.744Z,100332.97
2023-05-05T07:42:34.025Z,100328.50
2023-05-05T07:45:01.006Z,100332.31
2023-05-05T07:47:28.048Z,100324.75
2023-05-05T07:49:55.153Z,100322.84
2023-05-05T07:52:33.235Z,100342.44
2023-05-05T07:55:09.316Z,100336.34
2023-05-05T07:57:36.391Z,100344.44
2023-05-05T08:00:03.796Z,100341.09
2023-05-05T08:02:39.379Z,100348.50
2023-05-05T08:05:07.277Z,100355.13
2023-05-05T08:07:36.618Z,100354.13
2023-05-05T08:10:03.828Z,100359.44
2023-05-05T08:12:30.869Z,100371.31
2023-05-05T08:14:57.820Z,100376.91
2023-05-05T08:17:27.125Z,100377.41
2023-05-05T08:19:54.214Z,100389.38
2023-05-05T08:22:24.050Z,100382.34
2023-05-05T08:24:51.059Z,100401.34
2023-05-05T08:27:18.083Z,100396.63
2023-05-05T08:29:45.100Z,100390.50
2023-05-05T08:32:12.210Z,100411.34
2023-05-05T08:34:39.376Z,100407.38
2023-05-05T08:37:06.507Z,100405.34
2023-05-05T08:39:33.552Z,100400.31
2023-05-05T08:42:00.712Z,100403.38
2023-05-05T08:44:29.004Z,100412.00
2023-05-05T08:46:56.833Z,100412.13
2023-05-05T08:49:25.528Z,100422.16
2023-05-05T08:51:54.251Z,100410.00
2023-05-05T08:54:27.410Z,100419.47
2023-05-05T08:56:57.069Z,100407.91
2023-05-05T08:59:25.298Z,100413.38
2023-05-05T09:02:12.744Z,100419.75
2023-05-05T09:04:40.076Z,100422.47
2023-05-05T09:07:07.475Z,100428.31
2023-05-05T09:09:34.636Z,100433.00
2023-05-05T09:12:03.131Z,100421.72
2023-05-05T09:14:30.195Z,100428.88
2023-05-05T09:16:57.456Z,100429.97
2023-05-05T09:19:24.607Z,100418.91
2023-05-05T09:21:52.101Z,100434.03
2023-05-05T09:24:19.326Z,100431.91
2023-05-05T09:26:47.676Z,100429.72
2023-05-05T09:29:19.280Z,100429.00
2023-05-05T09:32:05.499Z,100424.97
2023-05-05T09:34:36.311Z,100434.91
2023-05-05T09:37:04.280Z,100437.16
2023-05-05T09:39:31.516Z,100439.59
2023-05-05T09:41:58.862Z,100438.66
2023-05-05T09:44:37.010Z,100424.28
2023-05-05T09:47:09.557Z,100438.13
2023-05-05T09:49:39.527Z,100441.72
2023-05-05T09:52:16.781Z,100435.22
2023-05-05T09:54:44.373Z,100434.09
2023-05-05T09:57:28.862Z,100427.47
2023-05-05T10:00:04.334Z,100412.09
2023-05-05T10:02:38.426Z,100424.56
2023-05-05T10:05:08.089Z,100437.81
2023-05-05T10:07:36.227Z,100431.91
2023-05-05T10:10:09.436Z,100427.88
2023-05-05T10:12:37.942Z,100428.44
2023-05-05T10:15:07.364Z,100425.91
2023-05-05T10:17:54.313Z,100423.97
2023-05-05T10:20:33.626Z,100420.03
2023-05-05T10:23:05.727Z,100422.59
2023-05-05T10:25:46.616Z,100424.97
2023-05-05T10:28:22.330Z,100419.28
2023-05-05T10:30:53.005Z,100425.50
2023-05-05T10:33:34.244Z,100429.25
2023-05-05T10:36:05.352Z,100428.09
2023-05-05T10:38:34.269Z,100428.38
2023-05-05T10:41:05.016Z,100434.50
2023-05-05T10:43:32.779Z,100434.44
2023-05-05T10:46:00.845Z,100422.53
2023-05-05T10:48:57.828Z,100439.19
2023-05-05T10:51:39.844Z,100444.47
2023-05-05T10:54:37.164Z,100430.53
2023-05-05T10:57:09.898Z,100432.66
2023-05-05T10:59:37.215Z,100432.19
2023-05-05T11:02:28.388Z,100431.84
2023-05-05T11:05:17.701Z,100432.78
2023-05-05T11:07:46.604Z,100434.25
2023-05-05T11:10:15.978Z,100436.84
2023-05-05T11:12:52.444Z,100437.00
2023-05-05T11:15:31.826Z,100440.91
2023-05-05T11:18:03.132Z,100424.81
2023-05-05T11:20:39.880Z,100435.47
2023-05-05T11:23:07.618Z,100445.19
2023-05-05T11:25:39.254Z,100441.13
2023-05-05T11:28:14.413Z,100435.53
2023-05-05T11:30:57.559Z,100440.84
2023-05-05T11:33:38.300Z,100428.31
2023-05-05T11:36:13.334Z,100422.63
2023-05-05T11:39:31.636Z,100431.50
2023-05-05T11:42:20.497Z,100418.56
2023-05-05T11:44:47.772Z,100421.63
2023-05-05T11:47:14.783Z,100429.09
2023-05-05T11:49:41.875Z,100436.56
2023-05-05T11:52:12.479Z,100431.16
2023-05-05T11:54:48.202Z,100438.44
2023-05-05T11:57:21.807Z,100432.41
2023-05-05T11:59:54.980Z,100433.44
2023-05-05T12:02:22.827Z,100436.25
2023-05-05T12:04:51.235Z,100443.88
2023-05-05T12:07:19.698Z,100441.78
2023-05-05T12:09:47.978Z,100449.44
2023-05-05T12:12:15.817Z,100451.47
2023-05-05T12:14:54.354Z,100451.81
2023-05-05T12:17:23.013Z,100446.00
2023-05-05T12:19:54.815Z,100447.72
2023-05-05T12:22:24.442Z,100434.19
2023-05-05T12:24:59.073Z,100434.03
2023-05-05T12:27:27.603Z,100442.88
2023-05-05T12:29:56.581Z,100446.75
2023-05-05T12:32:30.493Z,100445.25
2023-05-05T12:34:57.751Z,100429.78
2023-05-05T12:37:26.935Z,100436.66
2023-05-05T12:39:55.169Z,100427.09
2023-05-05T12:42:22.775Z,100422.47
2023-05-05T12:44:50.128Z,100426.16
2023-05-05T12:47:33.591Z,100424.56
2023-05-05T12:50:03.019Z,100421.34
2023-05-05T12:52:45.326Z,100422.72
2023-05-05T12:55:13.265Z,100424.28
2023-05-05T12:58:00.921Z,100421.13
2023-05-05T13:00:29.283Z,100416.34
2023-05-05T13:02:57.073Z,100414.91
2023-05-05T13:05:34.009Z,100424.44
2023-05-05T13:08:01.119Z,100424.34
2023-05-05T13:10:28.529Z,100429.50
2023-05-05T13:12:56.951Z,100426.94
2023-05-05T13:15:25.198Z,100432.59
2023-05-05T13:18:00.325Z,100412.00
2023-05-05T13:20:27.666Z,100429.41
2023-05-05T13:22:54.817Z,100432.97
2023-05-05T13:25:21.912Z,100439.28
2023-05-05T13:27:49.158Z,100430.03
2023-05-05T13:30:16.273Z,100422.03
2023-05-05T13:32:43.526Z,100423.41
2023-05-05T13:35:12.145Z,100423.69
2023-05-05T13:37:41.603Z,100419.56
2023-05-05T13:40:09.477Z,100415.69
2023-05-05T13:42:36.580Z,100411.94
2023-05-05T13:45:03.970Z,100414.88
2023-05-05T13:47:32.227Z,100421.22
2023-05-05T13:49:59.598Z,100425.91
2023-05-05T13:52:27.733Z,100422.59
2023-05-05T13:54:55.762Z,100419.13
2023-05-05T13:57:23.366Z,100420.81
2023-05-05T13:59:50.733Z,100417.25
2023-05-05T14:02:17.788Z,100416.16
2023-05-05T14:04:45.014Z,100429.41
2023-05-05T14:07:12.074Z,100424.00
2023-05-05T14:09:39.183Z,100420.69
2023-05-05T14:12:06.402Z,100430.78
2023-05-05T14:14:34.500Z,100427.13
2023-05-05T14:17:01.675Z,100430.75
2023-05-05T14:19:29.154Z,100429.13
2023-05-05T14:21:56.323Z,100426.69
2023-05-05T14:24:23.429Z,100429.91
2023-05-05T14:26:50.555Z,100428.22
2023-05-05T14:29:17.677Z,100430.69
2023-05-05T14:31:44.761Z,100426.34
2023-05-05T14:34:11.864Z,100431.47
2023-05-05T14:36:39.023Z,100428.34
2023-05-05T14:39:06.127Z,100424.53
2023-05-05T14:41:33.241Z,100419.16
2023-05-05T14:44:00.461Z,100426.63
2023-05-05T14:46:27.752Z,100434.38
2023-05-05T14:48:55.059Z,100423.00
2023-05-05T14:51:22.331Z,100420.06
2023-05-05T14:53:49.974Z,100421.97
2023-05-05T14:56:17.471Z,100426.13
2023-05-05T14:58:44.585Z,100421.78
2023-05-05T15:01:11.753Z,100415.38
2023-05-05T15:03:38.900Z,100417.78
2023-05-05T15:06:07.379Z,100420.50
2023-05-05T15:08:34.723Z,100412.41
2023-05-05T15:11:01.920Z,100417.16
2023-05-05T15:13:29.824Z,100422.84
2023-05-05T15:15:57.220Z,100409.47
2023-05-05T15:18:24.375Z,100421.06
2023-05-05T15:20:51.456Z,100406.16
2023-05-05T15:23:18.530Z,100417.34
2023-05-05T15:25:45.797Z,100416.09
2023-05-05T15:28:12.926Z,100406.00
2023-05-05T15:30:40.129Z,100417.00
2023-05-05T15:33:07.354Z,100391.34
2023-05-05T15:35:34.601Z,100411.81
2023-05-05T15:38:01.863Z,100392.94
2023-05-05T15:40:29.158Z,100416.16
2023-05-05T15:42:56.244Z,100405.16
2023-05-05T15:45:23.733Z,100404.03
2023-05-05T15:47:51.143Z,100406.22
2023-05-05T15:50:18.568Z,100406.72
2023-05-05T15:52:47.180Z,100404.50
2023-05-05T15:55:16.116Z,100407.94
2023-05-05T15:57:43.228Z,100400.13
2023-05-05T16:00:10.836Z,100405.66
2023-05-05T16:02:38.143Z,100406.00
2023-05-05T16:05:06.001Z,100417.03
2023-05-05T16:07:33.276Z,100402.94
2023-05-05T16:10:00.436Z,100416.75
2023-05-05T16:12:27.531Z,100421.78
2023-05-05T16:14:54.662Z,100432.28
2023-05-05T16:17:22.758Z,100424.00
2023-05-05T16:19:50.161Z,100430.66
2023-05-05T16:22:17.490Z,100430.66
2023-05-05T16:24:44.571Z,100421.22
2023-05-05T16:27:11.656Z,100423.72
2023-05-05T16:29:38.931Z,100421.22
2023-05-05T16:32:06.433Z,100420.72
2023-05-05T16:34:33.812Z,100424.31
2023-05-05T16:37:01.359Z,100408.25
2023-05-05T16:39:28.523Z,100412.69
2023-05-05T16:41:55.826Z,100419.41
2023-05-05T16:44:22.915Z,100420.34
2023-05-05T16:46:50.019Z,100425.44
2023-05-05T16:49:17.234Z,100425.31
2023-05-05T16:51:44.470Z,100421.03
2023-05-05T16:54:11.640Z,100417.47
2023-05-05T16:56:38.711Z,100423.41
2023-05-05T16:59:06.361Z,100422.91
2023-05-05T17:01:34.962Z,100429.53
2023-05-05T17:04:02.667Z,100423.16
2023-05-05T17:06:33.298Z,100428.41
2023-05-05T17:09:00.670Z,100429.09
2023-05-05T17:11:27.842Z,100433.75
2023-05-05T17:13:55.013Z,100426.88
2023-05-05T17:16:22.249Z,100435.59
2023-05-05T17:18:49.513Z,100433.31
2023-05-05T17:21:16.704Z,100438.88
2023-05-05T17:23:43.858Z,100428.88
2023-05-05T17:26:10.989Z,100434.53
2023-05-05T17:28:38.282Z,100433.03
2023-05-05T17:31:05.840Z,100428.66
2023-05-05T17:33:32.996Z,100441.69
2023-05-05T17:36:00.168Z,100430.94
2023-05-05T17:38:27.260Z,100438.81
2023-05-05T17:40:54.349Z,100427.88
2023-05-05T17:43:21.494Z,100425.50
2023-05-05T17:45:48.689Z,100439.84
2023-05-05T17:48:15.949Z,100430.94
2023-05-05T17:50:43.624Z,100432.47
2023-05-05T17:53:11.260Z,100417.13
2023-05-05T17:55:38.457Z,100418.69
2023-05-05T17:58:05.580Z,100425.31
2023-05-05T18:00:32.689Z,100431.97
2023-05-05T18:03:01.163Z,100430.38
2023-05-05T18:05:28.630Z,100428.19
2023-05-05T18:07:55.816Z,100429.63
2023-05-05T18:10:23.432Z,100432.91
2023-05-05T18:12:50.802Z,100432.53
2023-05-05T18:15:17.914Z,100428.06
2023-05-05T18:17:45.124Z,100435.22
2023-05-05T18:20:12.360Z,100434.47
2023-05-05T18:22:39.484Z,100429.66
2023-05-05T18:25:08.270Z,100434.94
2023-05-05T18:27:36.140Z,100409.81
2023-05-05T18:30:04.913Z,100430.44
2023-05-05T18:32:34.034Z,100429.72
2023-05-05T18:35:01.376Z,100437.66
2023-05-05T18:37:28.611Z,100435.59
2023-05-05T18:39:55.788Z,100416.41
2023-05-05T18:42:23.256Z,100430.84
2023-05-05T18:44:50.467Z,100439.16
2023-05-05T18:47:17.561Z,100425.84
2023-05-05T18:49:45.564Z,100437.06
2023-05-05T18:52:13.649Z,100436.97
2023-05-05T18:54:41.192Z,100441.75
2023-05-05T18:57:08.295Z,100437.09
2023-05-05T18:59:35.443Z,100423.00
2023-05-05T19:02:02.990Z,100439.56
2023-05-05T19:04:31.734Z,100429.69
2023-05-05T19:07:00.171Z,100440.63
2023-05-05T19:09:27.842Z,100437.78
2023-05-05T19:11:55.119Z,100435.09
2023-05-05T19:14:22.957Z,100435.69
2023-05-05T19:16:50.106Z,100433.09
2023-05-05T19:19:17.234Z,100438.31
2023-05-05T19:21:44.448Z,100438.78
2023-05-05T19:24:11.833Z,100435.94
2023-05-05T19:26:38.951Z,100429.59
2023-05-05T19:29:06.202Z,100414.69
2023-05-05T19:31:33.393Z,100436.56
2023-05-05T19:34:02.866Z,100434.94
2023-05-05T19:36:31.871Z,100414.94
2023-05-05T19:39:01.878Z,100424.34
2023-05-05T19:41:30.938Z,100431.63
2023-05-05T19:43:58.502Z,100430.00
2023-05-05T19:46:26.716Z,100431.69
2023-05-05T19:48:54.256Z,100440.38
2023-05-05T19:51:21.681Z,100430.72
2023-05-05T19:53:48.856Z,100438.16
2023-05-05T19:56:17.105Z,100446.25
2023-05-05T19:58:57.894Z,100447.47
2023-05-05T20:01:25.746Z,100452.59
2023-05-05T20:03:55.529Z,100442.25
2023-05-05T20:06:23.052Z,100437.69
2023-05-05T20:08:50.357Z,100442.81
2023-05-05T20:11:17.613Z,100438.53
2023-05-05T20:13:44.835Z,100451.50
2023-05-05T20:16:12.364Z,100444.63
2023-05-05T20:18:40.394Z,100445.56
2023-05-05T20:21:07.662Z,100426.97
2023-05-05T20:23:34.959Z,100441.97
2023-05-05T20:26:02.209Z,100451.00
2023-05-05T20:28:31.684Z,100436.38
2023-05-05T20:31:00.736Z,100436.06
2023-05-05T20:33:28.989Z,100442.94
2023-05-05T20:35:56.248Z,100437.91
2023-05-05T20:38:24.143Z,100449.84
2023-05-05T20:40:52.333Z,100443.63
2023-05-05T20:43:19.546Z,100426.38
2023-05-05T20:45:46.741Z,100437.25
2023-05-05T20:48:13.889Z,100439.03
2023-05-05T20:50:41.838Z,100440.19
2023-05-05T20:53:10.904Z,100444.34
2023-05-05T20:55:38.026Z,100442.56
2023-05-05T20:58:07.519Z,100435.53
2023-05-05T21:00:34.881Z,100450.94
2023-05-05T21:03:05.124Z,100441.63
2023-05-05T21:05:32.507Z,100441.78
2023-05-05T21:08:01.033Z,100447.06
2023-05-05T21:10:33.205Z,100442.41
2023-05-05T21:13:02.637Z,100447.56
2023-05-05T21:15:30.437Z,100439.19
2023-05-05T21:17:57.749Z,100444.22
2023-05-05T21:20:24.924Z,100426.16
2023-05-05T21:22:52.063Z,100443.00
2023-05-05T21:25:21.165Z,100436.63
2023-05-05T21:27:49.176Z,100444.91
2023-05-05T21:30:17.303Z,100406.06
2023-05-05T21:32:44.882Z,100432.06
2023-05-05T21:35:12.302Z,100408.22
2023-05-05T21:37:40.181Z,100424.66
2023-05-05T21:40:14.164Z,100421.66
2023-05-05T21:42:43.201Z,100431.34
2023-05-05T21:45:11.396Z,100427.53
2023-05-05T21:47:38.544Z,100421.16
2023-05-05T21:50:06.610Z,100425.44
2023-05-05T21:52:34.197Z,100422.94
2023-05-05T21:55:01.476Z,100420.72
2023-05-05T21:57:31.903Z,100429.50
2023-05-05T21:59:58.989Z,100408.41
2023-05-05T22:02:26.237Z,100433.75
2023-05-05T22:04:53.553Z,100433.97
2023-05-05T22:07:20.815Z,100399.91
2023-05-05T22:09:47.987Z,100431.69
2023-05-05T22:12:15.213Z,100436.31
2023-05-05T22:14:42.240Z,100432.44
2023-05-05T22:17:09.298Z,100433.50
2023-05-05T22:19:36.432Z,100420.56
2023-05-05T22:22:03.703Z,100418.22
2023-05-05T22:24:30.938Z,100439.34
2023-05-05T22:26:58.370Z,100437.91
2023-05-05T22:29:25.642Z,100439.78
2023-05-05T22:31:53.233Z,100427.13
2023-05-05T22:34:21.962Z,100441.00
2023-05-05T22:36:49.932Z,100434.91
2023-05-05T22:39:18.762Z,100439.34
2023-05-05T22:41:46.992Z,100443.13
2023-05-05T22:44:14.108Z,100438.31
2023-05-05T22:46:41.367Z,100435.22
2023-05-05T22:49:08.853Z,100436.44
2023-05-05T22:51:36.011Z,100434.69
2023-05-05T22:54:03.408Z,100437.81
2023-05-05T22:56:30.595Z,100416.34
2023-05-05T22:58:57.745Z,100442.75
2023-05-05T23:01:24.913Z,100445.63
2023-05-05T23:03:52.060Z,100451.78
2023-05-05T23:06:19.103Z,100448.22
2023-05-05T23:08:46.398Z,100453.34
2023-05-05T23:11:13.459Z,100441.75
2023-05-05T23:13:40.793Z,100450.00
2023-05-05T23:16:08.036Z,100446.75
2023-05-05T23:18:36.144Z,100448.22
2023-05-05T23:21:03.246Z,100445.28
2023-05-05T23:23:31.174Z,100431.84
2023-05-05T23:25:58.518Z,100447.09
2023-05-05T23:28:25.744Z,100451.69
2023-05-05T23:30:53.060Z,100456.16
2023-05-05T23:33:20.303Z,100436.16
2023-05-05T23:35:47.950Z,100459.53
2023-05-05T23:38:15.034Z,100460.03
2023-05-05T23:40:42.132Z,100464.75
2023-05-05T23:43:09.267Z,100458.91
2023-05-05T23:45:36.344Z,100457.22
2023-05-05T23:48:03.691Z,100469.72
2023-05-05T23:50:31.021Z,100465.66
2023-05-05T23:52:58.090Z,100466.81
2023-05-05T23:55:25.363Z,100469.31
2023-05-05T23:57:53.225Z,100467.41
